Terminal Aerodrome Forecast
Issued by NWS Brownsville, TX

Home | Current Version | Previous Version | Text Only | Print | Product List | Glossary On
Versions: 1 2 3 4 5 6 7 8 9 10 11 12 13 14 15 16 17 18 19 20 21 22
000
FTUS44 KBRO 120500
TAFMFE
TAF
KMFE 120529Z 1206/1306 12006KT P6SM SCT250
     FM121000 12005KT P6SM SCT020
      TEMPO 1210/1214 BKN020
     FM121400 14013KT P6SM SCT040
     FM130200 10007KT P6SM SKC=

USA.gov is the U.S. government's official web portal to all federal, state and local government web resources and services.